sensor_id;sensor_type;location;lat;lon;timestamp;P1;durP1;ratioP1;P2;durP2;ratioP2
1262;SDS011;62267;50.112;8.704;2023-06-22T00:01:47;10.67;;;9.67;;
1262;SDS011;62267;50.112;8.704;2023-06-22T00:04:14;10.57;;;9.53;;
1262;SDS011;62267;50.112;8.704;2023-06-22T00:06:42;9.37;;;8.47;;
1262;SDS011;62267;50.112;8.704;2023-06-22T00:09:10;10.30;;;9.27;;
1262;SDS011;62267;50.112;8.704;2023-06-22T00:11:37;9.73;;;8.73;;
1262;SDS011;62267;50.112;8.704;2023-06-22T00:14:05;12.23;;;9.20;;
1262;SDS011;62267;50.112;8.704;2023-06-22T00:16:33;9.80;;;8.90;;
1262;SDS011;62267;50.112;8.704;2023-06-22T00:19:00;10.20;;;9.20;;
1262;SDS011;62267;50.112;8.704;2023-06-22T00:21:29;10.13;;;9.10;;
1262;SDS011;62267;50.112;8.704;2023-06-22T00:23:57;10.47;;;9.30;;
1262;SDS011;62267;50.112;8.704;2023-06-22T00:26:24;10.23;;;8.70;;
1262;SDS011;62267;50.112;8.704;2023-06-22T00:28:52;10.20;;;9.30;;
1262;SDS011;62267;50.112;8.704;2023-06-22T00:31:21;9.10;;;8.30;;
1262;SDS011;62267;50.112;8.704;2023-06-22T00:33:49;10.60;;;9.50;;
1262;SDS011;62267;50.112;8.704;2023-06-22T00:36:17;11.40;;;10.30;;
1262;SDS011;62267;50.112;8.704;2023-06-22T00:38:45;10.77;;;9.87;;
1262;SDS011;62267;50.112;8.704;2023-06-22T00:41:13;10.90;;;9.90;;
1262;SDS011;62267;50.112;8.704;2023-06-22T00:43:42;10.37;;;9.47;;
1262;SDS011;62267;50.112;8.704;2023-06-22T00:46:10;11.00;;;9.97;;
1262;SDS011;62267;50.112;8.704;2023-06-22T00:48:39;9.93;;;9.03;;
1262;SDS011;62267;50.112;8.704;2023-06-22T00:51:09;10.23;;;9.33;;
1262;SDS011;62267;50.112;8.704;2023-06-22T00:53:38;9.80;;;9.00;;
1262;SDS011;62267;50.112;8.704;2023-06-22T00:56:05;9.83;;;8.93;;
1262;SDS011;62267;50.112;8.704;2023-06-22T00:58:36;9.90;;;9.10;;
1262;SDS011;62267;50.112;8.704;2023-06-22T01:01:03;10.80;;;9.90;;
1262;SDS011;62267;50.112;8.704;2023-06-22T01:03:31;10.53;;;9.40;;
1262;SDS011;62267;50.112;8.704;2023-06-22T01:06:01;9.67;;;8.77;;
1262;SDS011;62267;50.112;8.704;2023-06-22T01:08:31;9.77;;;8.87;;
1262;SDS011;62267;50.112;8.704;2023-06-22T01:11:10;9.53;;;8.67;;
1262;SDS011;62267;50.112;8.704;2023-06-22T01:13:41;9.53;;;8.73;;
1262;SDS011;62267;50.112;8.704;2023-06-22T01:16:29;9.13;;;8.43;;
1262;SDS011;62267;50.112;8.704;2023-06-22T01:19:00;9.77;;;8.77;;
1262;SDS011;62267;50.112;8.704;2023-06-22T01:21:29;9.73;;;8.80;;
1262;SDS011;62267;50.112;8.704;2023-06-22T01:26:36;11.93;;;9.57;;
1262;SDS011;62267;50.112;8.704;2023-06-22T01:29:04;11.00;;;10.00;;
1262;SDS011;62267;50.112;8.704;2023-06-22T01:31:33;10.43;;;9.27;;
1262;SDS011;62267;50.112;8.704;2023-06-22T01:34:03;9.97;;;9.07;;
1262;SDS011;62267;50.112;8.704;2023-06-22T01:36:32;11.17;;;10.07;;
1262;SDS011;62267;50.112;8.704;2023-06-22T01:39:00;10.57;;;9.47;;
1262;SDS011;62267;50.112;8.704;2023-06-22T01:41:28;10.77;;;9.70;;
1262;SDS011;62267;50.112;8.704;2023-06-22T01:43:56;13.77;;;10.70;;
1262;SDS011;62267;50.112;8.704;2023-06-22T01:46:24;11.53;;;10.43;;
1262;SDS011;62267;50.112;8.704;2023-06-22T01:48:52;12.47;;;11.20;;
1262;SDS011;62267;50.112;8.704;2023-06-22T01:51:21;11.93;;;10.90;;
1262;SDS011;62267;50.112;8.704;2023-06-22T01:53:49;12.07;;;10.87;;
1262;SDS011;62267;50.112;8.704;2023-06-22T01:56:18;11.90;;;10.80;;
1262;SDS011;62267;50.112;8.704;2023-06-22T01:58:51;12.40;;;11.30;;
1262;SDS011;62267;50.112;8.704;2023-06-22T02:01:24;13.10;;;11.90;;
1262;SDS011;62267;50.112;8.704;2023-06-22T02:04:01;12.93;;;11.63;;
1262;SDS011;62267;50.112;8.704;2023-06-22T02:06:31;13.87;;;12.53;;
1262;SDS011;62267;50.112;8.704;2023-06-22T02:09:02;12.47;;;11.27;;
1262;SDS011;62267;50.112;8.704;2023-06-22T02:11:31;12.60;;;11.40;;
1262;SDS011;62267;50.112;8.704;2023-06-22T02:14:00;12.43;;;11.33;;
1262;SDS011;62267;50.112;8.704;2023-06-22T02:16:28;12.53;;;11.33;;
1262;SDS011;62267;50.112;8.704;2023-06-22T02:18:57;12.57;;;11.37;;
1262;SDS011;62267;50.112;8.704;2023-06-22T02:21:33;12.27;;;11.07;;
1262;SDS011;62267;50.112;8.704;2023-06-22T02:24:01;12.40;;;11.30;;
1262;SDS011;62267;50.112;8.704;2023-06-22T02:26:29;12.83;;;11.60;;
1262;SDS011;62267;50.112;8.704;2023-06-22T02:28:57;13.93;;;12.53;;
1262;SDS011;62267;50.112;8.704;2023-06-22T02:31:25;12.53;;;11.43;;
1262;SDS011;62267;50.112;8.704;2023-06-22T02:34:00;12.90;;;11.70;;
1262;SDS011;62267;50.112;8.704;2023-06-22T02:36:28;12.80;;;11.50;;
1262;SDS011;62267;50.112;8.704;2023-06-22T02:38:57;11.70;;;10.60;;
1262;SDS011;62267;50.112;8.704;2023-06-22T02:41:27;12.60;;;11.40;;
1262;SDS011;62267;50.112;8.704;2023-06-22T02:43:56;12.63;;;11.33;;
1262;SDS011;62267;50.112;8.704;2023-06-22T02:46:24;12.30;;;11.20;;
1262;SDS011;62267;50.112;8.704;2023-06-22T02:48:52;12.83;;;11.63;;
1262;SDS011;62267;50.112;8.704;2023-06-22T02:51:20;12.43;;;11.33;;
1262;SDS011;62267;50.112;8.704;2023-06-22T02:53:47;11.70;;;10.60;;
1262;SDS011;62267;50.112;8.704;2023-06-22T02:56:19;13.27;;;11.93;;
1262;SDS011;62267;50.112;8.704;2023-06-22T02:58:55;13.27;;;11.97;;
1262;SDS011;62267;50.112;8.704;2023-06-22T03:01:31;13.50;;;11.07;;
1262;SDS011;62267;50.112;8.704;2023-06-22T03:04:05;12.70;;;11.53;;
1262;SDS011;62267;50.112;8.704;2023-06-22T03:06:33;12.57;;;11.40;;
1262;SDS011;62267;50.112;8.704;2023-06-22T03:09:04;14.10;;;12.10;;
1262;SDS011;62267;50.112;8.704;2023-06-22T03:11:33;11.63;;;10.73;;
1262;SDS011;62267;50.112;8.704;2023-06-22T03:14:01;12.40;;;11.30;;
1262;SDS011;62267;50.112;8.704;2023-06-22T03:16:29;14.73;;;13.37;;
1262;SDS011;62267;50.112;8.704;2023-06-22T03:18:57;12.80;;;11.60;;
1262;SDS011;62267;50.112;8.704;2023-06-22T03:21:27;13.07;;;11.70;;
1262;SDS011;62267;50.112;8.704;2023-06-22T03:23:59;12.60;;;11.40;;
1262;SDS011;62267;50.112;8.704;2023-06-22T03:26:26;13.67;;;12.37;;
1262;SDS011;62267;50.112;8.704;2023-06-22T03:28:54;12.23;;;11.03;;
1262;SDS011;62267;50.112;8.704;2023-06-22T03:31:22;13.10;;;11.80;;
1262;SDS011;62267;50.112;8.704;2023-06-22T03:33:50;12.73;;;11.53;;
1262;SDS011;62267;50.112;8.704;2023-06-22T03:36:18;12.80;;;11.50;;
1262;SDS011;62267;50.112;8.704;2023-06-22T03:38:46;11.90;;;10.80;;
1262;SDS011;62267;50.112;8.704;2023-06-22T03:41:14;13.97;;;12.53;;
1262;SDS011;62267;50.112;8.704;2023-06-22T03:43:42;13.57;;;12.37;;
1262;SDS011;62267;50.112;8.704;2023-06-22T03:46:10;12.90;;;11.70;;
1262;SDS011;62267;50.112;8.704;2023-06-22T03:48:37;13.00;;;11.90;;
1262;SDS011;62267;50.112;8.704;2023-06-22T03:51:06;13.03;;;11.70;;
1262;SDS011;62267;50.112;8.704;2023-06-22T03:53:33;13.13;;;11.77;;
1262;SDS011;62267;50.112;8.704;2023-06-22T03:56:01;13.47;;;12.23;;
1262;SDS011;62267;50.112;8.704;2023-06-22T03:58:28;12.87;;;11.60;;
1262;SDS011;62267;50.112;8.704;2023-06-22T04:00:59;12.60;;;11.53;;
1262;SDS011;62267;50.112;8.704;2023-06-22T04:03:27;11.80;;;10.80;;
1262;SDS011;62267;50.112;8.704;2023-06-22T04:05:55;12.80;;;11.53;;
1262;SDS011;62267;50.112;8.704;2023-06-22T04:08:23;12.70;;;11.53;;
1262;SDS011;62267;50.112;8.704;2023-06-22T04:10:50;13.30;;;12.00;;
1262;SDS011;62267;50.112;8.704;2023-06-22T04:13:18;13.03;;;11.83;;
1262;SDS011;62267;50.112;8.704;2023-06-22T04:15:45;12.67;;;11.37;;
1262;SDS011;62267;50.112;8.704;2023-06-22T04:18:13;12.93;;;11.83;;
1262;SDS011;62267;50.112;8.704;2023-06-22T04:20:41;12.97;;;11.80;;
1262;SDS011;62267;50.112;8.704;2023-06-22T04:23:12;12.40;;;11.10;;
1262;SDS011;62267;50.112;8.704;2023-06-22T04:25:40;11.80;;;10.80;;
1262;SDS011;62267;50.112;8.704;2023-06-22T04:28:09;12.13;;;11.03;;
1262;SDS011;62267;50.112;8.704;2023-06-22T04:30:39;12.60;;;11.40;;
1262;SDS011;62267;50.112;8.704;2023-06-22T04:33:15;13.90;;;12.63;;
1262;SDS011;62267;50.112;8.704;2023-06-22T04:35:44;12.90;;;11.60;;
1262;SDS011;62267;50.112;8.704;2023-06-22T04:38:12;12.93;;;11.63;;
1262;SDS011;62267;50.112;8.704;2023-06-22T04:40:40;13.33;;;12.13;;
1262;SDS011;62267;50.112;8.704;2023-06-22T04:43:08;13.43;;;12.10;;
1262;SDS011;62267;50.112;8.704;2023-06-22T04:45:36;14.00;;;11.57;;
1262;SDS011;62267;50.112;8.704;2023-06-22T04:48:07;15.07;;;13.67;;
1262;SDS011;62267;50.112;8.704;2023-06-22T04:50:36;14.40;;;13.10;;
1262;SDS011;62267;50.112;8.704;2023-06-22T04:53:06;12.73;;;11.53;;
1262;SDS011;62267;50.112;8.704;2023-06-22T04:55:36;13.37;;;12.07;;
1262;SDS011;62267;50.112;8.704;2023-06-22T04:58:05;12.53;;;11.43;;
1262;SDS011;62267;50.112;8.704;2023-06-22T05:00:32;14.43;;;12.97;;
1262;SDS011;62267;50.112;8.704;2023-06-22T05:03:02;15.90;;;13.77;;
1262;SDS011;62267;50.112;8.704;2023-06-22T05:05:44;14.27;;;12.87;;
1262;SDS011;62267;50.112;8.704;2023-06-22T05:08:12;14.93;;;13.37;;
1262;SDS011;62267;50.112;8.704;2023-06-22T05:10:39;14.90;;;13.03;;
1262;SDS011;62267;50.112;8.704;2023-06-22T05:13:24;14.27;;;12.97;;
1262;SDS011;62267;50.112;8.704;2023-06-22T05:15:53;13.20;;;12.00;;
1262;SDS011;62267;50.112;8.704;2023-06-22T05:18:28;13.20;;;11.80;;
1262;SDS011;62267;50.112;8.704;2023-06-22T05:20:57;12.40;;;11.13;;
1262;SDS011;62267;50.112;8.704;2023-06-22T05:23:25;13.40;;;12.07;;
1262;SDS011;62267;50.112;8.704;2023-06-22T05:25:52;15.07;;;12.93;;
1262;SDS011;62267;50.112;8.704;2023-06-22T05:28:23;13.23;;;11.93;;
1262;SDS011;62267;50.112;8.704;2023-06-22T05:30:51;14.40;;;12.90;;
1262;SDS011;62267;50.112;8.704;2023-06-22T05:33:18;15.57;;;13.20;;
1262;SDS011;62267;50.112;8.704;2023-06-22T05:35:45;14.20;;;12.80;;
1262;SDS011;62267;50.112;8.704;2023-06-22T05:38:13;12.10;;;10.93;;
1262;SDS011;62267;50.112;8.704;2023-06-22T05:40:40;16.87;;;13.07;;
1262;SDS011;62267;50.112;8.704;2023-06-22T05:43:08;14.37;;;12.90;;
1262;SDS011;62267;50.112;8.704;2023-06-22T05:45:35;16.10;;;12.13;;
1262;SDS011;62267;50.112;8.704;2023-06-22T05:48:02;14.53;;;13.00;;
1262;SDS011;62267;50.112;8.704;2023-06-22T05:50:32;14.50;;;12.80;;
1262;SDS011;62267;50.112;8.704;2023-06-22T05:53:00;14.20;;;12.77;;
1262;SDS011;62267;50.112;8.704;2023-06-22T05:55:29;17.70;;;12.73;;
1262;SDS011;62267;50.112;8.704;2023-06-22T05:57:58;13.97;;;12.57;;
1262;SDS011;62267;50.112;8.704;2023-06-22T06:00:25;14.57;;;13.20;;
1262;SDS011;62267;50.112;8.704;2023-06-22T06:02:53;13.03;;;11.83;;
1262;SDS011;62267;50.112;8.704;2023-06-22T06:05:20;14.97;;;13.37;;
1262;SDS011;62267;50.112;8.704;2023-06-22T06:07:50;13.70;;;12.40;;
1262;SDS011;62267;50.112;8.704;2023-06-22T06:10:18;16.77;;;13.93;;
1262;SDS011;62267;50.112;8.704;2023-06-22T06:12:45;13.60;;;12.30;;
1262;SDS011;62267;50.112;8.704;2023-06-22T06:15:13;16.70;;;14.17;;
1262;SDS011;62267;50.112;8.704;2023-06-22T06:17:45;14.90;;;13.30;;
1262;SDS011;62267;50.112;8.704;2023-06-22T06:20:13;15.50;;;13.77;;
1262;SDS011;62267;50.112;8.704;2023-06-22T06:22:40;14.40;;;13.00;;
1262;SDS011;62267;50.112;8.704;2023-06-22T06:25:09;13.73;;;12.53;;
1262;SDS011;62267;50.112;8.704;2023-06-22T06:27:36;17.47;;;13.03;;
1262;SDS011;62267;50.112;8.704;2023-06-22T06:30:03;17.23;;;13.30;;
1262;SDS011;62267;50.112;8.704;2023-06-22T06:32:31;15.47;;;13.97;;
1262;SDS011;62267;50.112;8.704;2023-06-22T06:34:58;16.07;;;14.43;;
1262;SDS011;62267;50.112;8.704;2023-06-22T06:37:25;16.67;;;14.97;;
1262;SDS011;62267;50.112;8.704;2023-06-22T06:39:54;16.27;;;14.57;;
1262;SDS011;62267;50.112;8.704;2023-06-22T06:42:23;15.47;;;14.07;;
1262;SDS011;62267;50.112;8.704;2023-06-22T06:44:52;14.87;;;13.20;;
1262;SDS011;62267;50.112;8.704;2023-06-22T06:47:20;14.87;;;13.40;;
1262;SDS011;62267;50.112;8.704;2023-06-22T06:49:47;15.53;;;13.77;;
1262;SDS011;62267;50.112;8.704;2023-06-22T06:52:15;15.50;;;13.93;;
1262;SDS011;62267;50.112;8.704;2023-06-22T06:54:43;14.53;;;12.50;;
1262;SDS011;62267;50.112;8.704;2023-06-22T06:57:10;15.50;;;13.20;;
1262;SDS011;62267;50.112;8.704;2023-06-22T06:59:39;13.63;;;12.27;;
1262;SDS011;62267;50.112;8.704;2023-06-22T07:02:06;14.40;;;12.90;;
1262;SDS011;62267;50.112;8.704;2023-06-22T07:04:34;13.53;;;12.33;;
1262;SDS011;62267;50.112;8.704;2023-06-22T07:07:02;15.17;;;13.50;;
1262;SDS011;62267;50.112;8.704;2023-06-22T07:09:29;14.40;;;12.90;;
1262;SDS011;62267;50.112;8.704;2023-06-22T07:11:58;13.33;;;12.00;;
1262;SDS011;62267;50.112;8.704;2023-06-22T07:14:26;15.70;;;14.13;;
1262;SDS011;62267;50.112;8.704;2023-06-22T07:16:53;14.03;;;12.70;;
1262;SDS011;62267;50.112;8.704;2023-06-22T07:19:27;15.00;;;13.60;;
1262;SDS011;62267;50.112;8.704;2023-06-22T07:21:54;15.27;;;13.90;;
1262;SDS011;62267;50.112;8.704;2023-06-22T07:24:22;15.47;;;13.87;;
1262;SDS011;62267;50.112;8.704;2023-06-22T07:26:49;14.50;;;13.20;;
1262;SDS011;62267;50.112;8.704;2023-06-22T07:29:17;14.37;;;13.03;;
1262;SDS011;62267;50.112;8.704;2023-06-22T07:31:45;13.53;;;12.23;;
1262;SDS011;62267;50.112;8.704;2023-06-22T07:34:12;14.70;;;13.20;;
1262;SDS011;62267;50.112;8.704;2023-06-22T07:36:40;14.60;;;12.77;;
1262;SDS011;62267;50.112;8.704;2023-06-22T07:39:09;16.50;;;15.00;;
1262;SDS011;62267;50.112;8.704;2023-06-22T07:41:36;15.10;;;13.80;;
1262;SDS011;62267;50.112;8.704;2023-06-22T07:44:04;14.80;;;13.40;;
1262;SDS011;62267;50.112;8.704;2023-06-22T07:46:32;15.23;;;13.73;;
1262;SDS011;62267;50.112;8.704;2023-06-22T07:49:00;14.63;;;13.23;;
1262;SDS011;62267;50.112;8.704;2023-06-22T07:51:27;15.87;;;14.30;;
1262;SDS011;62267;50.112;8.704;2023-06-22T07:53:54;14.83;;;13.50;;
1262;SDS011;62267;50.112;8.704;2023-06-22T07:56:22;16.27;;;14.70;;
1262;SDS011;62267;50.112;8.704;2023-06-22T07:58:49;15.50;;;14.03;;
1262;SDS011;62267;50.112;8.704;2023-06-22T08:01:17;15.20;;;13.70;;
1262;SDS011;62267;50.112;8.704;2023-06-22T08:03:50;16.07;;;14.57;;
1262;SDS011;62267;50.112;8.704;2023-06-22T08:06:17;13.70;;;12.47;;
1262;SDS011;62267;50.112;8.704;2023-06-22T08:08:44;15.53;;;13.93;;
1262;SDS011;62267;50.112;8.704;2023-06-22T08:11:14;15.60;;;14.20;;
1262;SDS011;62267;50.112;8.704;2023-06-22T08:13:42;17.20;;;15.60;;
1262;SDS011;62267;50.112;8.704;2023-06-22T08:16:09;15.97;;;14.57;;
1262;SDS011;62267;50.112;8.704;2023-06-22T08:18:36;16.10;;;14.70;;
1262;SDS011;62267;50.112;8.704;2023-06-22T08:21:04;15.03;;;13.63;;
1262;SDS011;62267;50.112;8.704;2023-06-22T08:23:31;16.37;;;14.77;;
1262;SDS011;62267;50.112;8.704;2023-06-22T08:25:59;15.90;;;14.40;;
1262;SDS011;62267;50.112;8.704;2023-06-22T08:28:26;17.83;;;16.03;;
1262;SDS011;62267;50.112;8.704;2023-06-22T08:30:53;14.70;;;13.30;;
1262;SDS011;62267;50.112;8.704;2023-06-22T08:33:21;14.87;;;13.50;;
1262;SDS011;62267;50.112;8.704;2023-06-22T08:35:55;15.27;;;13.80;;
1262;SDS011;62267;50.112;8.704;2023-06-22T08:38:22;17.40;;;14.30;;
1262;SDS011;62267;50.112;8.704;2023-06-22T08:40:50;15.97;;;14.37;;
1262;SDS011;62267;50.112;8.704;2023-06-22T08:43:17;17.57;;;15.60;;
1262;SDS011;62267;50.112;8.704;2023-06-22T08:45:45;16.00;;;14.50;;
1262;SDS011;62267;50.112;8.704;2023-06-22T08:48:12;16.80;;;15.10;;
1262;SDS011;62267;50.112;8.704;2023-06-22T08:50:39;16.30;;;14.80;;
1262;SDS011;62267;50.112;8.704;2023-06-22T08:53:07;17.17;;;15.07;;
1262;SDS011;62267;50.112;8.704;2023-06-22T08:55:36;15.10;;;13.57;;
1262;SDS011;62267;50.112;8.704;2023-06-22T08:58:03;15.60;;;14.20;;
1262;SDS011;62267;50.112;8.704;2023-06-22T09:00:31;16.47;;;14.97;;
1262;SDS011;62267;50.112;8.704;2023-06-22T09:03:01;16.00;;;14.60;;
1262;SDS011;62267;50.112;8.704;2023-06-22T09:05:29;15.47;;;14.13;;
1262;SDS011;62267;50.112;8.704;2023-06-22T09:07:57;15.77;;;14.20;;
1262;SDS011;62267;50.112;8.704;2023-06-22T09:10:25;15.67;;;14.30;;
1262;SDS011;62267;50.112;8.704;2023-06-22T09:12:54;15.43;;;14.10;;
1262;SDS011;62267;50.112;8.704;2023-06-22T09:15:21;16.20;;;14.70;;
1262;SDS011;62267;50.112;8.704;2023-06-22T09:17:49;16.13;;;14.53;;
1262;SDS011;62267;50.112;8.704;2023-06-22T09:20:18;16.47;;;14.77;;
1262;SDS011;62267;50.112;8.704;2023-06-22T09:22:46;19.10;;;17.23;;
1262;SDS011;62267;50.112;8.704;2023-06-22T09:25:26;16.87;;;15.37;;
1262;SDS011;62267;50.112;8.704;2023-06-22T09:27:54;15.57;;;14.17;;
1262;SDS011;62267;50.112;8.704;2023-06-22T09:30:22;16.80;;;15.20;;
1262;SDS011;62267;50.112;8.704;2023-06-22T09:32:49;15.37;;;14.07;;
1262;SDS011;62267;50.112;8.704;2023-06-22T09:35:17;14.80;;;13.50;;
1262;SDS011;62267;50.112;8.704;2023-06-22T09:37:47;15.10;;;13.70;;
1262;SDS011;62267;50.112;8.704;2023-06-22T09:40:14;14.07;;;12.67;;
1262;SDS011;62267;50.112;8.704;2023-06-22T09:42:43;16.40;;;14.80;;
1262;SDS011;62267;50.112;8.704;2023-06-22T09:45:10;14.03;;;12.73;;
1262;SDS011;62267;50.112;8.704;2023-06-22T09:47:38;15.60;;;14.00;;
1262;SDS011;62267;50.112;8.704;2023-06-22T09:50:05;14.33;;;13.07;;
1262;SDS011;62267;50.112;8.704;2023-06-22T09:52:33;15.10;;;13.80;;
1262;SDS011;62267;50.112;8.704;2023-06-22T09:55:14;15.67;;;13.37;;
1262;SDS011;62267;50.112;8.704;2023-06-22T09:57:42;14.57;;;13.27;;
1262;SDS011;62267;50.112;8.704;2023-06-22T10:00:09;16.73;;;13.20;;
1262;SDS011;62267;50.112;8.704;2023-06-22T10:02:40;12.40;;;11.23;;
1262;SDS011;62267;50.112;8.704;2023-06-22T10:05:08;12.50;;;11.30;;
1262;SDS011;62267;50.112;8.704;2023-06-22T10:07:36;17.50;;;12.60;;
1262;SDS011;62267;50.112;8.704;2023-06-22T10:10:08;12.77;;;11.57;;
1262;SDS011;62267;50.112;8.704;2023-06-22T10:12:36;12.37;;;11.37;;
1262;SDS011;62267;50.112;8.704;2023-06-22T10:15:03;12.80;;;11.70;;
1262;SDS011;62267;50.112;8.704;2023-06-22T10:17:31;12.83;;;11.73;;
1262;SDS011;62267;50.112;8.704;2023-06-22T10:19:58;12.70;;;11.60;;
1262;SDS011;62267;50.112;8.704;2023-06-22T10:22:27;14.00;;;12.60;;
1262;SDS011;62267;50.112;8.704;2023-06-22T10:24:55;13.23;;;11.03;;
1262;SDS011;62267;50.112;8.704;2023-06-22T10:27:23;13.10;;;11.83;;
1262;SDS011;62267;50.112;8.704;2023-06-22T10:29:52;12.80;;;11.23;;
1262;SDS011;62267;50.112;8.704;2023-06-22T10:32:20;13.10;;;11.80;;
1262;SDS011;62267;50.112;8.704;2023-06-22T10:34:47;11.87;;;10.77;;
1262;SDS011;62267;50.112;8.704;2023-06-22T10:37:15;12.70;;;11.40;;
1262;SDS011;62267;50.112;8.704;2023-06-22T10:39:42;15.30;;;11.60;;
1262;SDS011;62267;50.112;8.704;2023-06-22T10:42:10;12.53;;;11.43;;
1262;SDS011;62267;50.112;8.704;2023-06-22T10:44:37;12.30;;;11.30;;
1262;SDS011;62267;50.112;8.704;2023-06-22T10:47:09;13.23;;;12.00;;
1262;SDS011;62267;50.112;8.704;2023-06-22T10:49:40;11.60;;;10.50;;
1262;SDS011;62267;50.112;8.704;2023-06-22T10:52:08;13.17;;;11.73;;
1262;SDS011;62267;50.112;8.704;2023-06-22T10:54:35;12.47;;;11.03;;
1262;SDS011;62267;50.112;8.704;2023-06-22T10:57:04;12.50;;;11.27;;
1262;SDS011;62267;50.112;8.704;2023-06-22T10:59:32;12.30;;;11.10;;
1262;SDS011;62267;50.112;8.704;2023-06-22T11:01:59;12.53;;;11.30;;
1262;SDS011;62267;50.112;8.704;2023-06-22T11:04:27;13.00;;;11.20;;
1262;SDS011;62267;50.112;8.704;2023-06-22T11:06:54;12.77;;;11.57;;
1262;SDS011;62267;50.112;8.704;2023-06-22T11:09:26;17.33;;;11.80;;
1262;SDS011;62267;50.112;8.704;2023-06-22T11:11:59;12.67;;;11.47;;
1262;SDS011;62267;50.112;8.704;2023-06-22T11:14:29;11.67;;;10.67;;
1262;SDS011;62267;50.112;8.704;2023-06-22T11:16:56;11.03;;;10.13;;
1262;SDS011;62267;50.112;8.704;2023-06-22T11:19:26;12.00;;;10.83;;
1262;SDS011;62267;50.112;8.704;2023-06-22T11:21:55;11.80;;;10.70;;
1262;SDS011;62267;50.112;8.704;2023-06-22T11:24:23;12.40;;;11.30;;
1262;SDS011;62267;50.112;8.704;2023-06-22T11:26:50;12.90;;;11.60;;
1262;SDS011;62267;50.112;8.704;2023-06-22T11:29:23;12.77;;;11.47;;
1262;SDS011;62267;50.112;8.704;2023-06-22T11:32:05;11.80;;;10.60;;
1262;SDS011;62267;50.112;8.704;2023-06-22T11:34:33;11.60;;;10.60;;
1262;SDS011;62267;50.112;8.704;2023-06-22T11:37:04;12.97;;;10.97;;
1262;SDS011;62267;50.112;8.704;2023-06-22T11:39:34;14.10;;;12.00;;
1262;SDS011;62267;50.112;8.704;2023-06-22T11:42:09;15.00;;;12.40;;
1262;SDS011;62267;50.112;8.704;2023-06-22T11:44:41;14.10;;;11.90;;
1262;SDS011;62267;50.112;8.704;2023-06-22T11:47:09;12.47;;;11.37;;
1262;SDS011;62267;50.112;8.704;2023-06-22T11:49:38;15.03;;;12.40;;
1262;SDS011;62267;50.112;8.704;2023-06-22T11:52:06;12.53;;;11.17;;
1262;SDS011;62267;50.112;8.704;2023-06-22T11:54:35;13.33;;;11.50;;
1262;SDS011;62267;50.112;8.704;2023-06-22T11:57:03;12.80;;;10.90;;
1262;SDS011;62267;50.112;8.704;2023-06-22T11:59:32;12.27;;;11.10;;
1262;SDS011;62267;50.112;8.704;2023-06-22T12:02:00;13.27;;;12.10;;
1262;SDS011;62267;50.112;8.704;2023-06-22T12:04:34;20.00;;;11.30;;
1262;SDS011;62267;50.112;8.704;2023-06-22T12:07:01;11.30;;;10.20;;
1262;SDS011;62267;50.112;8.704;2023-06-22T12:09:29;13.67;;;12.30;;
1262;SDS011;62267;50.112;8.704;2023-06-22T12:11:56;14.73;;;10.97;;
1262;SDS011;62267;50.112;8.704;2023-06-22T12:14:24;17.83;;;11.40;;
1262;SDS011;62267;50.112;8.704;2023-06-22T12:16:51;17.03;;;13.97;;
1262;SDS011;62267;50.112;8.704;2023-06-22T12:19:19;12.30;;;11.10;;
1262;SDS011;62267;50.112;8.704;2023-06-22T12:21:46;13.30;;;12.10;;
1262;SDS011;62267;50.112;8.704;2023-06-22T12:24:17;12.57;;;11.47;;
1262;SDS011;62267;50.112;8.704;2023-06-22T12:26:44;14.43;;;12.57;;
1262;SDS011;62267;50.112;8.704;2023-06-22T12:29:24;11.90;;;10.70;;
1262;SDS011;62267;50.112;8.704;2023-06-22T12:31:52;12.93;;;10.93;;
1262;SDS011;62267;50.112;8.704;2023-06-22T12:34:20;13.23;;;11.93;;
1262;SDS011;62267;50.112;8.704;2023-06-22T12:36:47;13.40;;;12.10;;
1262;SDS011;62267;50.112;8.704;2023-06-22T12:39:17;13.60;;;12.33;;
1262;SDS011;62267;50.112;8.704;2023-06-22T12:41:46;15.97;;;13.77;;
1262;SDS011;62267;50.112;8.704;2023-06-22T12:44:13;13.00;;;11.23;;
1262;SDS011;62267;50.112;8.704;2023-06-22T12:46:41;11.47;;;10.30;;
1262;SDS011;62267;50.112;8.704;2023-06-22T12:49:08;12.43;;;11.00;;
1262;SDS011;62267;50.112;8.704;2023-06-22T12:51:39;14.30;;;12.90;;
1262;SDS011;62267;50.112;8.704;2023-06-22T12:54:08;14.10;;;12.30;;
1262;SDS011;62267;50.112;8.704;2023-06-22T12:56:37;18.03;;;12.70;;
1262;SDS011;62267;50.112;8.704;2023-06-22T12:59:04;13.87;;;11.20;;
1262;SDS011;62267;50.112;8.704;2023-06-22T13:01:32;15.60;;;10.83;;
1262;SDS011;62267;50.112;8.704;2023-06-22T13:04:00;11.57;;;10.57;;
1262;SDS011;62267;50.112;8.704;2023-06-22T13:06:28;13.37;;;12.00;;
1262;SDS011;62267;50.112;8.704;2023-06-22T13:08:56;12.60;;;11.40;;
1262;SDS011;62267;50.112;8.704;2023-06-22T13:11:30;12.60;;;11.50;;
1262;SDS011;62267;50.112;8.704;2023-06-22T13:13:59;12.63;;;11.53;;
1262;SDS011;62267;50.112;8.704;2023-06-22T13:16:28;11.20;;;10.07;;
1262;SDS011;62267;50.112;8.704;2023-06-22T13:18:57;16.40;;;11.10;;
1262;SDS011;62267;50.112;8.704;2023-06-22T13:21:25;13.60;;;11.60;;
1262;SDS011;62267;50.112;8.704;2023-06-22T13:23:54;12.13;;;11.03;;
1262;SDS011;62267;50.112;8.704;2023-06-22T13:26:24;15.43;;;11.47;;
1262;SDS011;62267;50.112;8.704;2023-06-22T13:28:52;13.10;;;11.83;;
1262;SDS011;62267;50.112;8.704;2023-06-22T13:31:21;13.60;;;12.30;;
1262;SDS011;62267;50.112;8.704;2023-06-22T13:33:49;13.57;;;11.13;;
1262;SDS011;62267;50.112;8.704;2023-06-22T13:36:20;14.37;;;10.90;;
1262;SDS011;62267;50.112;8.704;2023-06-22T13:39:16;15.50;;;12.17;;
1262;SDS011;62267;50.112;8.704;2023-06-22T13:41:43;11.70;;;10.60;;
1262;SDS011;62267;50.112;8.704;2023-06-22T13:44:13;12.30;;;11.03;;
1262;SDS011;62267;50.112;8.704;2023-06-22T13:46:44;13.93;;;11.37;;
1262;SDS011;62267;50.112;8.704;2023-06-22T13:49:12;11.63;;;10.53;;
1262;SDS011;62267;50.112;8.704;2023-06-22T13:51:39;13.80;;;11.60;;
1262;SDS011;62267;50.112;8.704;2023-06-22T13:54:10;12.23;;;11.13;;
1262;SDS011;62267;50.112;8.704;2023-06-22T13:56:56;12.23;;;10.83;;
1262;SDS011;62267;50.112;8.704;2023-06-22T13:59:23;13.90;;;12.43;;
1262;SDS011;62267;50.112;8.704;2023-06-22T14:01:53;13.77;;;12.57;;
1262;SDS011;62267;50.112;8.704;2023-06-22T14:04:22;19.70;;;11.47;;
1262;SDS011;62267;50.112;8.704;2023-06-22T14:06:50;15.27;;;13.77;;
1262;SDS011;62267;50.112;8.704;2023-06-22T14:09:22;13.97;;;12.77;;
1262;SDS011;62267;50.112;8.704;2023-06-22T14:11:53;14.40;;;10.80;;
1262;SDS011;62267;50.112;8.704;2023-06-22T14:14:22;12.53;;;10.10;;
1262;SDS011;62267;50.112;8.704;2023-06-22T14:16:50;13.63;;;11.17;;
1262;SDS011;62267;50.112;8.704;2023-06-22T14:19:20;11.87;;;10.73;;
1262;SDS011;62267;50.112;8.704;2023-06-22T14:21:49;12.03;;;10.40;;
1262;SDS011;62267;50.112;8.704;2023-06-22T14:24:16;12.03;;;11.00;;
1262;SDS011;62267;50.112;8.704;2023-06-22T14:26:48;13.43;;;11.80;;
1262;SDS011;62267;50.112;8.704;2023-06-22T14:29:15;11.80;;;10.67;;
1262;SDS011;62267;50.112;8.704;2023-06-22T14:31:45;12.30;;;11.00;;
1262;SDS011;62267;50.112;8.704;2023-06-22T14:34:15;11.70;;;9.50;;
1262;SDS011;62267;50.112;8.704;2023-06-22T14:36:42;10.60;;;9.03;;
1262;SDS011;62267;50.112;8.704;2023-06-22T14:39:10;10.43;;;8.30;;
1262;SDS011;62267;50.112;8.704;2023-06-22T14:41:37;16.07;;;8.47;;
1262;SDS011;62267;50.112;8.704;2023-06-22T14:44:05;13.93;;;8.87;;
1262;SDS011;62267;50.112;8.704;2023-06-22T14:46:34;13.10;;;8.60;;
1262;SDS011;62267;50.112;8.704;2023-06-22T14:49:04;9.30;;;7.67;;